sensor_id;sensor_type;location;lat;lon;timestamp;temperature;humidity
45283;DHT22;31023;44.994;1.796;2023-10-19T00:00:39;14.90;99.90
45283;DHT22;31023;44.994;1.796;2023-10-19T00:03:06;14.80;99.90
45283;DHT22;31023;44.994;1.796;2023-10-19T00:05:34;14.90;99.90
45283;DHT22;31023;44.994;1.796;2023-10-19T00:08:02;14.80;99.90
45283;DHT22;31023;44.994;1.796;2023-10-19T00:10:53;14.90;99.90
45283;DHT22;31023;44.994;1.796;2023-10-19T00:13:30;14.90;99.90
45283;DHT22;31023;44.994;1.796;2023-10-19T00:15:56;15.10;99.90
45283;DHT22;31023;44.994;1.796;2023-10-19T00:18:24;15.20;99.90
45283;DHT22;31023;44.994;1.796;2023-10-19T00:20:54;15.30;99.90
45283;DHT22;31023;44.994;1.796;2023-10-19T00:23:23;15.40;99.90
45283;DHT22;31023;44.994;1.796;2023-10-19T00:25:59;15.50;99.90
45283;DHT22;31023;44.994;1.796;2023-10-19T00:28:26;15.40;99.90
45283;DHT22;31023;44.994;1.796;2023-10-19T00:30:53;15.30;99.90
45283;DHT22;31023;44.994;1.796;2023-10-19T00:33:24;15.30;99.90
45283;DHT22;31023;44.994;1.796;2023-10-19T00:35:54;15.40;99.90
45283;DHT22;31023;44.994;1.796;2023-10-19T00:38:26;15.40;99.90
45283;DHT22;31023;44.994;1.796;2023-10-19T00:41:20;15.20;99.90
45283;DHT22;31023;44.994;1.796;2023-10-19T00:43:56;15.20;99.90
45283;DHT22;31023;44.994;1.796;2023-10-19T00:46:29;15.10;99.90
45283;DHT22;31023;44.994;1.796;2023-10-19T00:49:03;15.10;99.90
45283;DHT22;31023;44.994;1.796;2023-10-19T00:51:36;15.10;99.90
45283;DHT22;31023;44.994;1.796;2023-10-19T00:54:05;15.10;99.90
45283;DHT22;31023;44.994;1.796;2023-10-19T00:56:37;15.30;99.90
45283;DHT22;31023;44.994;1.796;2023-10-19T00:59:03;15.50;99.90
45283;DHT22;31023;44.994;1.796;2023-10-19T01:01:41;15.50;99.90
45283;DHT22;31023;44.994;1.796;2023-10-19T01:04:13;15.60;99.90
45283;DHT22;31023;44.994;1.796;2023-10-19T01:06:43;15.40;99.90
45283;DHT22;31023;44.994;1.796;2023-10-19T01:09:11;15.30;99.90
45283;DHT22;31023;44.994;1.796;2023-10-19T01:11:44;15.10;99.90
45283;DHT22;31023;44.994;1.796;2023-10-19T01:14:21;15.00;99.90
45283;DHT22;31023;44.994;1.796;2023-10-19T01:16:47;14.90;99.90
45283;DHT22;31023;44.994;1.796;2023-10-19T01:19:15;14.70;99.90
45283;DHT22;31023;44.994;1.796;2023-10-19T01:21:45;14.80;99.90
45283;DHT22;31023;44.994;1.796;2023-10-19T01:24:18;14.90;99.90
45283;DHT22;31023;44.994;1.796;2023-10-19T01:26:46;14.90;99.90
45283;DHT22;31023;44.994;1.796;2023-10-19T01:29:12;14.90;99.90
45283;DHT22;31023;44.994;1.796;2023-10-19T01:31:51;15.10;99.90
45283;DHT22;31023;44.994;1.796;2023-10-19T01:34:22;15.20;99.90
45283;DHT22;31023;44.994;1.796;2023-10-19T01:36:47;15.20;99.90
45283;DHT22;31023;44.994;1.796;2023-10-19T01:39:17;15.20;99.90
45283;DHT22;31023;44.994;1.796;2023-10-19T01:41:44;15.30;99.90
45283;DHT22;31023;44.994;1.796;2023-10-19T01:44:11;15.40;99.90
45283;DHT22;31023;44.994;1.796;2023-10-19T01:46:41;15.40;99.90
45283;DHT22;31023;44.994;1.796;2023-10-19T01:49:09;15.40;99.90
45283;DHT22;31023;44.994;1.796;2023-10-19T01:51:35;15.40;99.90
45283;DHT22;31023;44.994;1.796;2023-10-19T01:54:08;15.50;99.90
45283;DHT22;31023;44.994;1.796;2023-10-19T01:56:34;15.60;99.90
45283;DHT22;31023;44.994;1.796;2023-10-19T01:59:04;15.70;99.90
45283;DHT22;31023;44.994;1.796;2023-10-19T02:01:30;15.50;99.90
45283;DHT22;31023;44.994;1.796;2023-10-19T02:04:02;15.50;99.90
45283;DHT22;31023;44.994;1.796;2023-10-19T02:06:30;15.40;99.90
45283;DHT22;31023;44.994;1.796;2023-10-19T02:09:08;15.50;99.90
45283;DHT22;31023;44.994;1.796;2023-10-19T02:12:03;15.50;99.90
45283;DHT22;31023;44.994;1.796;2023-10-19T02:14:32;15.70;99.90
45283;DHT22;31023;44.994;1.796;2023-10-19T02:17:00;15.30;99.90
45283;DHT22;31023;44.994;1.796;2023-10-19T02:19:28;15.10;99.90
45283;DHT22;31023;44.994;1.796;2023-10-19T02:21:56;15.00;99.90
45283;DHT22;31023;44.994;1.796;2023-10-19T02:24:22;14.90;99.90
45283;DHT22;31023;44.994;1.796;2023-10-19T02:26:50;14.80;99.90
45283;DHT22;31023;44.994;1.796;2023-10-19T02:29:19;14.80;99.90
45283;DHT22;31023;44.994;1.796;2023-10-19T02:31:45;14.70;99.90
45283;DHT22;31023;44.994;1.796;2023-10-19T02:34:13;14.90;99.90
45283;DHT22;31023;44.994;1.796;2023-10-19T02:36:41;14.90;99.90
45283;DHT22;31023;44.994;1.796;2023-10-19T02:39:09;14.90;99.90
45283;DHT22;31023;44.994;1.796;2023-10-19T02:41:41;15.00;99.90
45283;DHT22;31023;44.994;1.796;2023-10-19T02:44:19;15.20;99.90
45283;DHT22;31023;44.994;1.796;2023-10-19T02:46:52;15.10;99.90
45283;DHT22;31023;44.994;1.796;2023-10-19T02:49:23;15.00;99.90
45283;DHT22;31023;44.994;1.796;2023-10-19T02:51:52;15.00;99.90
45283;DHT22;31023;44.994;1.796;2023-10-19T02:54:19;15.00;99.90
45283;DHT22;31023;44.994;1.796;2023-10-19T02:56:46;15.00;99.90
45283;DHT22;31023;44.994;1.796;2023-10-19T02:59:15;15.00;99.90
45283;DHT22;31023;44.994;1.796;2023-10-19T03:01:42;15.00;99.90
45283;DHT22;31023;44.994;1.796;2023-10-19T03:04:11;15.00;99.90
45283;DHT22;31023;44.994;1.796;2023-10-19T03:06:40;15.00;99.90
45283;DHT22;31023;44.994;1.796;2023-10-19T03:09:08;15.00;99.90
45283;DHT22;31023;44.994;1.796;2023-10-19T03:11:56;15.10;99.90
45283;DHT22;31023;44.994;1.796;2023-10-19T03:14:29;15.30;99.90
45283;DHT22;31023;44.994;1.796;2023-10-19T03:16:57;15.20;99.90
45283;DHT22;31023;44.994;1.796;2023-10-19T03:19:23;15.50;99.90
45283;DHT22;31023;44.994;1.796;2023-10-19T03:21:52;15.70;99.90
45283;DHT22;31023;44.994;1.796;2023-10-19T03:24:20;15.60;99.90
45283;DHT22;31023;44.994;1.796;2023-10-19T03:26:49;15.60;99.90
45283;DHT22;31023;44.994;1.796;2023-10-19T03:29:18;15.70;99.90
45283;DHT22;31023;44.994;1.796;2023-10-19T03:31:52;15.80;99.90
45283;DHT22;31023;44.994;1.796;2023-10-19T03:34:17;16.00;99.90
45283;DHT22;31023;44.994;1.796;2023-10-19T03:36:43;15.90;99.90
45283;DHT22;31023;44.994;1.796;2023-10-19T03:39:10;15.60;99.90
45283;DHT22;31023;44.994;1.796;2023-10-19T03:41:39;15.50;99.90
45283;DHT22;31023;44.994;1.796;2023-10-19T03:44:10;15.50;99.90
45283;DHT22;31023;44.994;1.796;2023-10-19T03:46:44;15.50;99.90
45283;DHT22;31023;44.994;1.796;2023-10-19T03:49:24;15.50;99.90
45283;DHT22;31023;44.994;1.796;2023-10-19T03:51:55;15.50;99.90
45283;DHT22;31023;44.994;1.796;2023-10-19T03:54:27;15.50;99.90
45283;DHT22;31023;44.994;1.796;2023-10-19T03:56:54;15.60;99.90
45283;DHT22;31023;44.994;1.796;2023-10-19T03:59:26;15.70;99.90
45283;DHT22;31023;44.994;1.796;2023-10-19T04:01:55;15.80;99.90
45283;DHT22;31023;44.994;1.796;2023-10-19T04:04:21;15.80;99.90
45283;DHT22;31023;44.994;1.796;2023-10-19T04:06:47;15.70;99.90
45283;DHT22;31023;44.994;1.796;2023-10-19T04:09:14;15.50;99.90
45283;DHT22;31023;44.994;1.796;2023-10-19T04:11:43;15.50;99.90
45283;DHT22;31023;44.994;1.796;2023-10-19T04:14:16;15.50;99.90
45283;DHT22;31023;44.994;1.796;2023-10-19T04:16:43;15.50;99.90
45283;DHT22;31023;44.994;1.796;2023-10-19T04:19:13;15.50;99.90
45283;DHT22;31023;44.994;1.796;2023-10-19T04:21:42;15.70;99.90
45283;DHT22;31023;44.994;1.796;2023-10-19T04:24:13;15.80;99.90
45283;DHT22;31023;44.994;1.796;2023-10-19T04:26:39;15.60;99.90
45283;DHT22;31023;44.994;1.796;2023-10-19T04:29:06;15.40;99.90
45283;DHT22;31023;44.994;1.796;2023-10-19T04:31:37;15.40;99.90
45283;DHT22;31023;44.994;1.796;2023-10-19T04:34:03;15.50;99.90
45283;DHT22;31023;44.994;1.796;2023-10-19T04:36:33;15.40;99.90
45283;DHT22;31023;44.994;1.796;2023-10-19T04:39:02;15.50;99.90
45283;DHT22;31023;44.994;1.796;2023-10-19T04:41:28;15.50;99.90
45283;DHT22;31023;44.994;1.796;2023-10-19T04:43:54;15.40;99.90
45283;DHT22;31023;44.994;1.796;2023-10-19T04:46:20;15.30;99.90
45283;DHT22;31023;44.994;1.796;2023-10-19T04:48:46;15.40;99.90
45283;DHT22;31023;44.994;1.796;2023-10-19T04:51:12;15.40;99.90
45283;DHT22;31023;44.994;1.796;2023-10-19T04:53:38;15.40;99.90
45283;DHT22;31023;44.994;1.796;2023-10-19T04:56:05;15.40;99.90
45283;DHT22;31023;44.994;1.796;2023-10-19T04:58:32;15.50;99.90
45283;DHT22;31023;44.994;1.796;2023-10-19T05:00:58;15.50;99.90
45283;DHT22;31023;44.994;1.796;2023-10-19T05:03:27;15.50;99.90
45283;DHT22;31023;44.994;1.796;2023-10-19T05:05:54;15.30;99.90
45283;DHT22;31023;44.994;1.796;2023-10-19T05:08:20;15.30;99.90
45283;DHT22;31023;44.994;1.796;2023-10-19T05:10:46;15.30;99.90
45283;DHT22;31023;44.994;1.796;2023-10-19T05:13:12;15.30;99.90
45283;DHT22;31023;44.994;1.796;2023-10-19T05:15:38;15.30;99.90
45283;DHT22;31023;44.994;1.796;2023-10-19T05:18:04;15.20;99.90
45283;DHT22;31023;44.994;1.796;2023-10-19T05:20:30;15.20;99.90
45283;DHT22;31023;44.994;1.796;2023-10-19T05:22:56;15.30;99.90
45283;DHT22;31023;44.994;1.796;2023-10-19T05:25:23;15.40;99.90
45283;DHT22;31023;44.994;1.796;2023-10-19T05:27:49;15.40;99.90
45283;DHT22;31023;44.994;1.796;2023-10-19T05:30:15;15.40;99.90
45283;DHT22;31023;44.994;1.796;2023-10-19T05:32:40;15.40;99.90
45283;DHT22;31023;44.994;1.796;2023-10-19T05:35:06;15.50;99.90
45283;DHT22;31023;44.994;1.796;2023-10-19T05:37:32;15.40;99.90
45283;DHT22;31023;44.994;1.796;2023-10-19T05:39:57;15.40;99.90
45283;DHT22;31023;44.994;1.796;2023-10-19T05:42:24;15.50;99.90
45283;DHT22;31023;44.994;1.796;2023-10-19T05:44:50;15.50;99.90
45283;DHT22;31023;44.994;1.796;2023-10-19T05:47:17;15.30;99.90
45283;DHT22;31023;44.994;1.796;2023-10-19T05:49:42;15.10;99.90
45283;DHT22;31023;44.994;1.796;2023-10-19T05:52:08;14.80;99.90
45283;DHT22;31023;44.994;1.796;2023-10-19T05:54:34;14.70;99.90
45283;DHT22;31023;44.994;1.796;2023-10-19T05:56:59;14.70;99.90
45283;DHT22;31023;44.994;1.796;2023-10-19T05:59:25;14.60;99.90
45283;DHT22;31023;44.994;1.796;2023-10-19T06:01:52;14.60;99.90
45283;DHT22;31023;44.994;1.796;2023-10-19T06:04:18;14.50;99.90
45283;DHT22;31023;44.994;1.796;2023-10-19T06:06:43;14.40;99.90
45283;DHT22;31023;44.994;1.796;2023-10-19T06:09:09;14.30;99.90
45283;DHT22;31023;44.994;1.796;2023-10-19T06:11:35;14.20;99.90
45283;DHT22;31023;44.994;1.796;2023-10-19T06:14:06;14.30;99.90
45283;DHT22;31023;44.994;1.796;2023-10-19T06:16:33;14.30;99.90
45283;DHT22;31023;44.994;1.796;2023-10-19T06:18:59;14.40;99.90
45283;DHT22;31023;44.994;1.796;2023-10-19T06:21:25;14.50;99.90
45283;DHT22;31023;44.994;1.796;2023-10-19T06:23:51;14.60;99.90
45283;DHT22;31023;44.994;1.796;2023-10-19T06:26:18;14.70;99.90
45283;DHT22;31023;44.994;1.796;2023-10-19T06:28:44;14.70;99.90
45283;DHT22;31023;44.994;1.796;2023-10-19T06:31:09;14.90;99.90
45283;DHT22;31023;44.994;1.796;2023-10-19T06:33:35;14.80;99.90
45283;DHT22;31023;44.994;1.796;2023-10-19T06:36:02;14.80;99.90
45283;DHT22;31023;44.994;1.796;2023-10-19T06:38:31;14.80;99.90
45283;DHT22;31023;44.994;1.796;2023-10-19T06:40:59;14.90;99.90
45283;DHT22;31023;44.994;1.796;2023-10-19T06:43:28;14.90;99.90
45283;DHT22;31023;44.994;1.796;2023-10-19T06:45:56;14.90;99.90
45283;DHT22;31023;44.994;1.796;2023-10-19T06:48:21;14.90;99.90
45283;DHT22;31023;44.994;1.796;2023-10-19T06:50:47;15.00;99.90
45283;DHT22;31023;44.994;1.796;2023-10-19T06:53:13;15.00;99.90
45283;DHT22;31023;44.994;1.796;2023-10-19T06:55:39;14.90;99.90
45283;DHT22;31023;44.994;1.796;2023-10-19T06:58:05;15.00;99.90
45283;DHT22;31023;44.994;1.796;2023-10-19T07:00:32;15.00;99.90
45283;DHT22;31023;44.994;1.796;2023-10-19T07:02:59;15.00;99.90
45283;DHT22;31023;44.994;1.796;2023-10-19T07:05:28;15.10;99.90
45283;DHT22;31023;44.994;1.796;2023-10-19T07:07:57;15.20;99.90
45283;DHT22;31023;44.994;1.796;2023-10-19T07:10:25;15.30;99.90
45283;DHT22;31023;44.994;1.796;2023-10-19T07:12:53;15.20;99.90
45283;DHT22;31023;44.994;1.796;2023-10-19T07:15:20;15.30;99.90
45283;DHT22;31023;44.994;1.796;2023-10-19T07:17:48;15.30;99.90
45283;DHT22;31023;44.994;1.796;2023-10-19T07:20:15;15.20;99.90
45283;DHT22;31023;44.994;1.796;2023-10-19T07:23:01;15.30;99.90
45283;DHT22;31023;44.994;1.796;2023-10-19T07:25:56;15.30;99.90
45283;DHT22;31023;44.994;1.796;2023-10-19T07:28:25;15.10;99.90
45283;DHT22;31023;44.994;1.796;2023-10-19T07:30:55;15.00;99.90
45283;DHT22;31023;44.994;1.796;2023-10-19T07:33:21;15.10;99.90
45283;DHT22;31023;44.994;1.796;2023-10-19T07:35:49;15.20;99.90
45283;DHT22;31023;44.994;1.796;2023-10-19T07:38:23;15.30;99.90
45283;DHT22;31023;44.994;1.796;2023-10-19T07:40:49;15.60;99.90
45283;DHT22;31023;44.994;1.796;2023-10-19T07:43:18;15.70;99.90
45283;DHT22;31023;44.994;1.796;2023-10-19T07:45:45;15.70;99.90
45283;DHT22;31023;44.994;1.796;2023-10-19T07:48:13;15.70;99.90
45283;DHT22;31023;44.994;1.796;2023-10-19T07:50:40;15.60;99.90
45283;DHT22;31023;44.994;1.796;2023-10-19T07:53:06;15.80;99.90
45283;DHT22;31023;44.994;1.796;2023-10-19T07:55:31;15.80;99.90
45283;DHT22;31023;44.994;1.796;2023-10-19T07:57:58;15.80;99.90
45283;DHT22;31023;44.994;1.796;2023-10-19T08:00:28;15.80;99.90
45283;DHT22;31023;44.994;1.796;2023-10-19T08:02:59;15.80;99.90
45283;DHT22;31023;44.994;1.796;2023-10-19T08:05:25;15.80;99.90
45283;DHT22;31023;44.994;1.796;2023-10-19T08:07:51;16.40;99.90
45283;DHT22;31023;44.994;1.796;2023-10-19T08:10:19;17.30;99.90
45283;DHT22;31023;44.994;1.796;2023-10-19T08:12:47;17.20;99.90
45283;DHT22;31023;44.994;1.796;2023-10-19T08:15:13;17.00;99.90
45283;DHT22;31023;44.994;1.796;2023-10-19T08:17:42;17.90;99.90
45283;DHT22;31023;44.994;1.796;2023-10-19T08:20:09;17.80;99.90
45283;DHT22;31023;44.994;1.796;2023-10-19T08:22:38;17.40;99.90
45283;DHT22;31023;44.994;1.796;2023-10-19T08:25:04;17.80;99.90
45283;DHT22;31023;44.994;1.796;2023-10-19T08:27:38;19.60;99.90
45283;DHT22;31023;44.994;1.796;2023-10-19T08:30:06;20.30;99.90
45283;DHT22;31023;44.994;1.796;2023-10-19T08:32:34;20.60;99.90
45283;DHT22;31023;44.994;1.796;2023-10-19T08:35:04;20.40;99.90
45283;DHT22;31023;44.994;1.796;2023-10-19T08:37:31;20.50;99.90
45283;DHT22;31023;44.994;1.796;2023-10-19T08:39:57;20.50;99.90
45283;DHT22;31023;44.994;1.796;2023-10-19T08:42:23;20.40;99.90
45283;DHT22;31023;44.994;1.796;2023-10-19T08:44:49;20.00;99.90
45283;DHT22;31023;44.994;1.796;2023-10-19T08:47:15;20.30;99.90
45283;DHT22;31023;44.994;1.796;2023-10-19T08:49:41;21.10;99.90
45283;DHT22;31023;44.994;1.796;2023-10-19T08:52:07;20.80;99.90
45283;DHT22;31023;44.994;1.796;2023-10-19T08:54:33;20.70;99.90
45283;DHT22;31023;44.994;1.796;2023-10-19T08:57:00;20.10;99.90
45283;DHT22;31023;44.994;1.796;2023-10-19T08:59:27;19.90;99.90
45283;DHT22;31023;44.994;1.796;2023-10-19T09:02:01;19.60;99.90
45283;DHT22;31023;44.994;1.796;2023-10-19T09:04:28;19.70;99.90
45283;DHT22;31023;44.994;1.796;2023-10-19T09:06:54;19.90;99.90
45283;DHT22;31023;44.994;1.796;2023-10-19T09:09:20;20.20;99.90
45283;DHT22;31023;44.994;1.796;2023-10-19T09:11:47;20.20;99.90
45283;DHT22;31023;44.994;1.796;2023-10-19T09:14:30;19.70;99.90
45283;DHT22;31023;44.994;1.796;2023-10-19T09:16:57;20.10;99.90
45283;DHT22;31023;44.994;1.796;2023-10-19T09:22:01;19.60;99.90
45283;DHT22;31023;44.994;1.796;2023-10-19T09:24:34;19.60;99.90
45283;DHT22;31023;44.994;1.796;2023-10-19T09:26:59;19.90;99.90
45283;DHT22;31023;44.994;1.796;2023-10-19T09:29:25;20.50;99.90
45283;DHT22;31023;44.994;1.796;2023-10-19T09:31:51;20.30;99.90
45283;DHT22;31023;44.994;1.796;2023-10-19T09:34:20;20.00;99.90
45283;DHT22;31023;44.994;1.796;2023-10-19T09:36:47;19.70;99.90
45283;DHT22;31023;44.994;1.796;2023-10-19T09:39:13;19.60;99.90
45283;DHT22;31023;44.994;1.796;2023-10-19T09:41:39;19.50;99.90
45283;DHT22;31023;44.994;1.796;2023-10-19T09:44:07;19.40;99.90
45283;DHT22;31023;44.994;1.796;2023-10-19T09:46:37;19.40;99.90
45283;DHT22;31023;44.994;1.796;2023-10-19T09:49:05;19.20;99.90
45283;DHT22;31023;44.994;1.796;2023-10-19T09:51:32;19.30;99.90
45283;DHT22;31023;44.994;1.796;2023-10-19T09:56:52;19.20;99.90
45283;DHT22;31023;44.994;1.796;2023-10-19T09:59:31;19.30;99.90
45283;DHT22;31023;44.994;1.796;2023-10-19T10:04:31;19.10;99.90
45283;DHT22;31023;44.994;1.796;2023-10-19T10:06:58;19.20;99.90
45283;DHT22;31023;44.994;1.796;2023-10-19T10:09:29;19.20;99.90
45283;DHT22;31023;44.994;1.796;2023-10-19T10:11:55;19.10;99.90
45283;DHT22;31023;44.994;1.796;2023-10-19T10:14:25;19.10;99.90
45283;DHT22;31023;44.994;1.796;2023-10-19T10:17:00;19.20;99.90
45283;DHT22;31023;44.994;1.796;2023-10-19T10:19:29;19.30;99.90
45283;DHT22;31023;44.994;1.796;2023-10-19T10:22:10;19.30;99.90
45283;DHT22;31023;44.994;1.796;2023-10-19T10:24:47;19.50;99.90
45283;DHT22;31023;44.994;1.796;2023-10-19T10:27:16;19.50;99.90
45283;DHT22;31023;44.994;1.796;2023-10-19T10:29:59;19.40;99.90
45283;DHT22;31023;44.994;1.796;2023-10-19T10:32:49;19.50;99.90
45283;DHT22;31023;44.994;1.796;2023-10-19T10:38:08;19.50;99.90
45283;DHT22;31023;44.994;1.796;2023-10-19T10:40:43;19.60;99.90
45283;DHT22;31023;44.994;1.796;2023-10-19T10:43:09;19.50;99.90
45283;DHT22;31023;44.994;1.796;2023-10-19T10:45:36;19.50;99.90
45283;DHT22;31023;44.994;1.796;2023-10-19T10:48:01;19.60;99.90
45283;DHT22;31023;44.994;1.796;2023-10-19T10:50:27;19.70;99.90
45283;DHT22;31023;44.994;1.796;2023-10-19T10:52:56;19.70;99.90
45283;DHT22;31023;44.994;1.796;2023-10-19T10:55:25;19.60;99.90
45283;DHT22;31023;44.994;1.796;2023-10-19T10:57:51;19.60;99.90
45283;DHT22;31023;44.994;1.796;2023-10-19T11:00:17;19.60;99.90
45283;DHT22;31023;44.994;1.796;2023-10-19T11:02:46;19.70;99.90
45283;DHT22;31023;44.994;1.796;2023-10-19T11:05:13;19.70;99.90
45283;DHT22;31023;44.994;1.796;2023-10-19T11:08:06;19.50;99.90
45283;DHT22;31023;44.994;1.796;2023-10-19T11:10:33;19.40;99.90
45283;DHT22;31023;44.994;1.796;2023-10-19T11:13:05;19.20;99.90
45283;DHT22;31023;44.994;1.796;2023-10-19T11:15:32;19.30;99.90
45283;DHT22;31023;44.994;1.796;2023-10-19T11:17:58;19.30;99.90
45283;DHT22;31023;44.994;1.796;2023-10-19T11:20:26;19.30;99.90
45283;DHT22;31023;44.994;1.796;2023-10-19T11:22:53;19.10;99.90
45283;DHT22;31023;44.994;1.796;2023-10-19T11:25:26;19.10;99.90
45283;DHT22;31023;44.994;1.796;2023-10-19T11:27:57;19.10;99.90
45283;DHT22;31023;44.994;1.796;2023-10-19T11:30:31;19.20;99.90
45283;DHT22;31023;44.994;1.796;2023-10-19T11:32:57;19.20;99.90
45283;DHT22;31023;44.994;1.796;2023-10-19T11:35:25;19.30;99.90
45283;DHT22;31023;44.994;1.796;2023-10-19T11:37:56;19.70;99.90
45283;DHT22;31023;44.994;1.796;2023-10-19T11:40:23;19.80;99.90
45283;DHT22;31023;44.994;1.796;2023-10-19T11:42:50;19.70;99.90
45283;DHT22;31023;44.994;1.796;2023-10-19T11:45:16;19.60;99.90
45283;DHT22;31023;44.994;1.796;2023-10-19T11:47:45;19.50;99.90
45283;DHT22;31023;44.994;1.796;2023-10-19T11:50:14;19.50;99.90
45283;DHT22;31023;44.994;1.796;2023-10-19T11:52:44;19.30;99.90
45283;DHT22;31023;44.994;1.796;2023-10-19T11:55:14;19.00;99.90
45283;DHT22;31023;44.994;1.796;2023-10-19T11:57:42;19.00;99.90
45283;DHT22;31023;44.994;1.796;2023-10-19T12:00:10;19.10;99.90
45283;DHT22;31023;44.994;1.796;2023-10-19T12:02:39;19.60;99.90
45283;DHT22;31023;44.994;1.796;2023-10-19T12:05:09;20.10;99.90
45283;DHT22;31023;44.994;1.796;2023-10-19T12:07:39;20.40;99.90
45283;DHT22;31023;44.994;1.796;2023-10-19T12:10:08;20.60;99.90
45283;DHT22;31023;44.994;1.796;2023-10-19T12:12:35;20.60;99.90
45283;DHT22;31023;44.994;1.796;2023-10-19T12:15:01;20.40;99.90
45283;DHT22;31023;44.994;1.796;2023-10-19T12:17:28;20.10;99.90
45283;DHT22;31023;44.994;1.796;2023-10-19T12:19:55;20.00;99.90
45283;DHT22;31023;44.994;1.796;2023-10-19T12:22:21;19.90;99.90
45283;DHT22;31023;44.994;1.796;2023-10-19T12:24:47;19.60;99.90
45283;DHT22;31023;44.994;1.796;2023-10-19T12:27:14;19.40;99.90
45283;DHT22;31023;44.994;1.796;2023-10-19T12:29:40;19.30;99.90
45283;DHT22;31023;44.994;1.796;2023-10-19T12:32:06;19.40;99.90
45283;DHT22;31023;44.994;1.796;2023-10-19T12:34:32;19.70;99.90
45283;DHT22;31023;44.994;1.796;2023-10-19T12:36:58;19.70;99.90
45283;DHT22;31023;44.994;1.796;2023-10-19T12:39:24;19.70;99.90
45283;DHT22;31023;44.994;1.796;2023-10-19T12:42:10;19.80;99.90
45283;DHT22;31023;44.994;1.796;2023-10-19T12:44:36;19.60;99.90
45283;DHT22;31023;44.994;1.796;2023-10-19T12:47:07;19.40;99.90
45283;DHT22;31023;44.994;1.796;2023-10-19T12:49:39;19.20;99.90
45283;DHT22;31023;44.994;1.796;2023-10-19T12:52:06;19.20;99.90
45283;DHT22;31023;44.994;1.796;2023-10-19T12:54:33;19.20;99.90
45283;DHT22;31023;44.994;1.796;2023-10-19T12:57:01;19.30;99.90
45283;DHT22;31023;44.994;1.796;2023-10-19T12:59:29;19.50;99.90
45283;DHT22;31023;44.994;1.796;2023-10-19T13:01:55;19.70;99.90
45283;DHT22;31023;44.994;1.796;2023-10-19T13:04:24;19.70;99.90
45283;DHT22;31023;44.994;1.796;2023-10-19T13:06:50;19.90;99.90
45283;DHT22;31023;44.994;1.796;2023-10-19T13:09:17;20.20;99.90
45283;DHT22;31023;44.994;1.796;2023-10-19T13:11:47;20.20;99.90
45283;DHT22;31023;44.994;1.796;2023-10-19T13:14:17;20.50;99.90
45283;DHT22;31023;44.994;1.796;2023-10-19T13:16:43;20.50;99.90
45283;DHT22;31023;44.994;1.796;2023-10-19T13:19:09;20.50;99.90
45283;DHT22;31023;44.994;1.796;2023-10-19T13:21:39;20.40;99.90
45283;DHT22;31023;44.994;1.796;2023-10-19T13:24:08;20.40;99.90
45283;DHT22;31023;44.994;1.796;2023-10-19T13:26:34;20.40;99.90
45283;DHT22;31023;44.994;1.796;2023-10-19T13:29:00;20.30;99.90
45283;DHT22;31023;44.994;1.796;2023-10-19T13:31:25;20.20;99.90
45283;DHT22;31023;44.994;1.796;2023-10-19T13:33:52;20.00;99.90
45283;DHT22;31023;44.994;1.796;2023-10-19T13:36:18;19.90;99.90
45283;DHT22;31023;44.994;1.796;2023-10-19T13:38:44;19.80;99.90
45283;DHT22;31023;44.994;1.796;2023-10-19T13:41:10;19.80;99.90
45283;DHT22;31023;44.994;1.796;2023-10-19T13:43:37;19.80;99.90
45283;DHT22;31023;44.994;1.796;2023-10-19T13:46:03;19.80;99.90
45283;DHT22;31023;44.994;1.796;2023-10-19T13:48:30;19.90;99.90
45283;DHT22;31023;44.994;1.796;2023-10-19T13:50:57;20.00;99.90
45283;DHT22;31023;44.994;1.796;2023-10-19T13:53:26;19.90;99.90
45283;DHT22;31023;44.994;1.796;2023-10-19T13:55:52;19.80;99.90
45283;DHT22;31023;44.994;1.796;2023-10-19T13:58:18;19.70;99.90
45283;DHT22;31023;44.994;1.796;2023-10-19T14:00:44;19.50;99.90
45283;DHT22;31023;44.994;1.796;2023-10-19T14:03:13;19.50;99.90
45283;DHT22;31023;44.994;1.796;2023-10-19T14:05:41;19.40;99.90
45283;DHT22;31023;44.994;1.796;2023-10-19T14:08:13;19.30;99.90
45283;DHT22;31023;44.994;1.796;2023-10-19T14:10:39;19.30;99.90
45283;DHT22;31023;44.994;1.796;2023-10-19T14:13:07;19.30;99.90
45283;DHT22;31023;44.994;1.796;2023-10-19T14:15:34;19.30;99.90
45283;DHT22;31023;44.994;1.796;2023-10-19T14:18:00;19.30;99.90
45283;DHT22;31023;44.994;1.796;2023-10-19T14:20:29;19.30;99.90
45283;DHT22;31023;44.994;1.796;2023-10-19T14:22:54;19.30;99.90
45283;DHT22;31023;44.994;1.796;2023-10-19T14:25:23;19.30;99.90
45283;DHT22;31023;44.994;1.796;2023-10-19T14:27:53;19.30;99.90
45283;DHT22;31023;44.994;1.796;2023-10-19T14:30:26;19.30;99.90
45283;DHT22;31023;44.994;1.796;2023-10-19T14:32:52;19.30;99.90
45283;DHT22;31023;44.994;1.796;2023-10-19T14:35:19;19.20;99.90
45283;DHT22;31023;44.994;1.796;2023-10-19T14:37:50;19.20;99.90
45283;DHT22;31023;44.994;1.796;2023-10-19T14:40:23;19.20;99.90
45283;DHT22;31023;44.994;1.796;2023-10-19T14:42:51;19.30;99.90
45283;DHT22;31023;44.994;1.796;2023-10-19T14:45:20;19.30;99.90
45283;DHT22;31023;44.994;1.796;2023-10-19T14:47:46;19.40;99.90
45283;DHT22;31023;44.994;1.796;2023-10-19T14:50:12;19.40;99.90
45283;DHT22;31023;44.994;1.796;2023-10-19T14:52:44;19.40;99.90
45283;DHT22;31023;44.994;1.796;2023-10-19T14:55:11;19.50;99.90
45283;DHT22;31023;44.994;1.796;2023-10-19T14:57:39;19.40;99.90
45283;DHT22;31023;44.994;1.796;2023-10-19T15:00:06;19.30;99.90
45283;DHT22;31023;44.994;1.796;2023-10-19T15:02:50;19.20;99.90
45283;DHT22;31023;44.994;1.796;2023-10-19T15:05:18;19.20;99.90
45283;DHT22;31023;44.994;1.796;2023-10-19T15:07:49;19.20;99.90
45283;DHT22;31023;44.994;1.796;2023-10-19T15:10:20;19.20;99.90
45283;DHT22;31023;44.994;1.796;2023-10-19T15:12:46;19.20;99.90
45283;DHT22;31023;44.994;1.796;2023-10-19T15:15:12;19.10;99.90
45283;DHT22;31023;44.994;1.796;2023-10-19T15:17:42;19.10;99.90
45283;DHT22;31023;44.994;1.796;2023-10-19T15:20:11;19.10;99.90
45283;DHT22;31023;44.994;1.796;2023-10-19T15:22:41;19.10;99.90
45283;DHT22;31023;44.994;1.796;2023-10-19T15:25:07;19.10;99.90
45283;DHT22;31023;44.994;1.796;2023-10-19T15:27:34;19.10;99.90
45283;DHT22;31023;44.994;1.796;2023-10-19T15:30:00;19.00;99.90
45283;DHT22;31023;44.994;1.796;2023-10-19T15:32:26;19.00;99.90
45283;DHT22;31023;44.994;1.796;2023-10-19T15:34:51;19.00;99.90
45283;DHT22;31023;44.994;1.796;2023-10-19T15:37:18;19.00;99.90
45283;DHT22;31023;44.994;1.796;2023-10-19T15:39:44;19.00;99.90
45283;DHT22;31023;44.994;1.796;2023-10-19T15:42:10;19.00;99.90
45283;DHT22;31023;44.994;1.796;2023-10-19T15:44:39;18.90;99.90
45283;DHT22;31023;44.994;1.796;2023-10-19T15:47:05;19.00;99.90
45283;DHT22;31023;44.994;1.796;2023-10-19T15:49:52;19.00;99.90